sensor_id;sensor_type;location;lat;lon;timestamp;temperature;humidity
65291;SHT30;51893;59.754;10.110;2022-07-23T00:00:53;15.71;76.34
65291;SHT30;51893;59.754;10.110;2022-07-23T00:03:21;15.71;76.27
65291;SHT30;51893;59.754;10.110;2022-07-23T00:05:49;15.66;76.28
65291;SHT30;51893;59.754;10.110;2022-07-23T00:08:17;15.62;76.26
65291;SHT30;51893;59.754;10.110;2022-07-23T00:10:45;15.56;76.15
65291;SHT30;51893;59.754;10.110;2022-07-23T00:13:13;15.48;76.05
65291;SHT30;51893;59.754;10.110;2022-07-23T00:15:40;15.45;75.95
65291;SHT30;51893;59.754;10.110;2022-07-23T00:18:09;15.38;76.15
65291;SHT30;51893;59.754;10.110;2022-07-23T00:20:36;15.32;76.12
65291;SHT30;51893;59.754;10.110;2022-07-23T00:23:04;15.27;76.20
65291;SHT30;51893;59.754;10.110;2022-07-23T00:25:32;15.22;76.27
65291;SHT30;51893;59.754;10.110;2022-07-23T00:28:00;15.22;76.38
65291;SHT30;51893;59.754;10.110;2022-07-23T00:30:30;15.21;76.18
65291;SHT30;51893;59.754;10.110;2022-07-23T00:33:01;15.10;76.25
65291;SHT30;51893;59.754;10.110;2022-07-23T00:35:35;15.04;76.24
65291;SHT30;51893;59.754;10.110;2022-07-23T00:38:08;14.98;76.24
65291;SHT30;51893;59.754;10.110;2022-07-23T00:40:37;14.97;76.23
65291;SHT30;51893;59.754;10.110;2022-07-23T00:43:07;14.90;76.33
65291;SHT30;51893;59.754;10.110;2022-07-23T00:45:35;14.82;76.44
65291;SHT30;51893;59.754;10.110;2022-07-23T00:48:03;14.78;76.50
65291;SHT30;51893;59.754;10.110;2022-07-23T00:50:31;14.76;76.53
65291;SHT30;51893;59.754;10.110;2022-07-23T00:52:59;14.75;76.41
65291;SHT30;51893;59.754;10.110;2022-07-23T00:55:27;14.69;76.47
65291;SHT30;51893;59.754;10.110;2022-07-23T00:57:55;14.73;76.55
65291;SHT30;51893;59.754;10.110;2022-07-23T01:00:24;14.75;76.27
65291;SHT30;51893;59.754;10.110;2022-07-23T01:02:52;14.75;76.13
65291;SHT30;51893;59.754;10.110;2022-07-23T01:05:20;14.66;76.27
65291;SHT30;51893;59.754;10.110;2022-07-23T01:07:50;14.53;76.47
65291;SHT30;51893;59.754;10.110;2022-07-23T01:10:23;14.43;76.73
65291;SHT30;51893;59.754;10.110;2022-07-23T01:13:02;14.34;76.84
65291;SHT30;51893;59.754;10.110;2022-07-23T01:15:35;14.27;76.88
65291;SHT30;51893;59.754;10.110;2022-07-23T01:18:05;14.24;76.97
65291;SHT30;51893;59.754;10.110;2022-07-23T01:20:35;14.15;77.06
65291;SHT30;51893;59.754;10.110;2022-07-23T01:23:03;14.16;77.05
65291;SHT30;51893;59.754;10.110;2022-07-23T01:25:31;14.21;76.97
65291;SHT30;51893;59.754;10.110;2022-07-23T01:28:00;14.19;76.93
65291;SHT30;51893;59.754;10.110;2022-07-23T01:30:27;14.09;77.09
65291;SHT30;51893;59.754;10.110;2022-07-23T01:32:55;14.07;76.99
65291;SHT30;51893;59.754;10.110;2022-07-23T01:35:23;14.04;77.09
65291;SHT30;51893;59.754;10.110;2022-07-23T01:37:51;14.07;77.05
65291;SHT30;51893;59.754;10.110;2022-07-23T01:40:20;13.98;77.12
65291;SHT30;51893;59.754;10.110;2022-07-23T01:42:49;13.90;77.17
65291;SHT30;51893;59.754;10.110;2022-07-23T01:45:17;13.93;77.20
65291;SHT30;51893;59.754;10.110;2022-07-23T01:47:45;13.88;77.10
65291;SHT30;51893;59.754;10.110;2022-07-23T01:50:15;13.76;77.20
65291;SHT30;51893;59.754;10.110;2022-07-23T01:52:42;13.80;77.16
65291;SHT30;51893;59.754;10.110;2022-07-23T01:55:10;13.74;77.03
65291;SHT30;51893;59.754;10.110;2022-07-23T01:57:45;13.69;77.25
65291;SHT30;51893;59.754;10.110;2022-07-23T02:00:14;13.73;77.28
65291;SHT30;51893;59.754;10.110;2022-07-23T02:02:42;13.74;77.01
65291;SHT30;51893;59.754;10.110;2022-07-23T02:05:10;13.69;77.26
65291;SHT30;51893;59.754;10.110;2022-07-23T02:07:38;13.72;77.25
65291;SHT30;51893;59.754;10.110;2022-07-23T02:10:06;13.63;77.18
65291;SHT30;51893;59.754;10.110;2022-07-23T02:12:35;13.53;77.13
65291;SHT30;51893;59.754;10.110;2022-07-23T02:15:03;13.48;76.92
65291;SHT30;51893;59.754;10.110;2022-07-23T02:17:36;13.45;76.97
65291;SHT30;51893;59.754;10.110;2022-07-23T02:20:05;13.43;77.02
65291;SHT30;51893;59.754;10.110;2022-07-23T02:22:34;13.41;77.08
65291;SHT30;51893;59.754;10.110;2022-07-23T02:25:06;13.35;77.17
65291;SHT30;51893;59.754;10.110;2022-07-23T02:27:36;13.24;77.39
65291;SHT30;51893;59.754;10.110;2022-07-23T02:30:04;13.29;77.34
65291;SHT30;51893;59.754;10.110;2022-07-23T02:32:33;13.24;77.41
65291;SHT30;51893;59.754;10.110;2022-07-23T02:35:03;13.23;77.66
65291;SHT30;51893;59.754;10.110;2022-07-23T02:37:32;13.19;77.84
65291;SHT30;51893;59.754;10.110;2022-07-23T02:40:00;13.20;77.86
65291;SHT30;51893;59.754;10.110;2022-07-23T02:42:28;13.19;77.76
65291;SHT30;51893;59.754;10.110;2022-07-23T02:44:55;13.15;77.70
65291;SHT30;51893;59.754;10.110;2022-07-23T02:47:23;13.10;77.66
65291;SHT30;51893;59.754;10.110;2022-07-23T02:49:51;13.01;77.72
65291;SHT30;51893;59.754;10.110;2022-07-23T02:52:18;13.00;77.72
65291;SHT30;51893;59.754;10.110;2022-07-23T02:54:46;12.99;77.80
65291;SHT30;51893;59.754;10.110;2022-07-23T02:57:14;13.00;77.84
65291;SHT30;51893;59.754;10.110;2022-07-23T02:59:42;13.02;77.67
65291;SHT30;51893;59.754;10.110;2022-07-23T03:02:10;12.98;77.47
65291;SHT30;51893;59.754;10.110;2022-07-23T03:04:37;12.94;77.59
65291;SHT30;51893;59.754;10.110;2022-07-23T03:07:05;12.95;77.73
65291;SHT30;51893;59.754;10.110;2022-07-23T03:09:33;12.91;77.99
65291;SHT30;51893;59.754;10.110;2022-07-23T03:12:01;12.90;78.18
65291;SHT30;51893;59.754;10.110;2022-07-23T03:14:29;12.94;78.30
65291;SHT30;51893;59.754;10.110;2022-07-23T03:16:57;12.92;78.57
65291;SHT30;51893;59.754;10.110;2022-07-23T03:19:27;12.93;78.66
65291;SHT30;51893;59.754;10.110;2022-07-23T03:21:54;12.95;78.61
65291;SHT30;51893;59.754;10.110;2022-07-23T03:24:22;12.94;78.70
65291;SHT30;51893;59.754;10.110;2022-07-23T03:27:10;12.97;78.75
65291;SHT30;51893;59.754;10.110;2022-07-23T03:29:38;13.03;78.82
65291;SHT30;51893;59.754;10.110;2022-07-23T03:32:07;13.04;78.93
65291;SHT30;51893;59.754;10.110;2022-07-23T03:34:35;13.06;79.01
65291;SHT30;51893;59.754;10.110;2022-07-23T03:37:04;13.06;78.91
65291;SHT30;51893;59.754;10.110;2022-07-23T03:39:32;13.10;78.95
65291;SHT30;51893;59.754;10.110;2022-07-23T03:42:00;13.12;78.88
65291;SHT30;51893;59.754;10.110;2022-07-23T03:44:28;13.12;78.84
65291;SHT30;51893;59.754;10.110;2022-07-23T03:46:56;13.13;79.04
65291;SHT30;51893;59.754;10.110;2022-07-23T03:49:24;13.16;79.01
65291;SHT30;51893;59.754;10.110;2022-07-23T03:51:52;13.20;78.91
65291;SHT30;51893;59.754;10.110;2022-07-23T03:54:20;13.22;79.00
65291;SHT30;51893;59.754;10.110;2022-07-23T03:56:48;13.24;78.91
65291;SHT30;51893;59.754;10.110;2022-07-23T03:59:16;13.29;78.79
65291;SHT30;51893;59.754;10.110;2022-07-23T04:01:51;13.34;78.85
65291;SHT30;51893;59.754;10.110;2022-07-23T04:04:19;13.40;78.87
65291;SHT30;51893;59.754;10.110;2022-07-23T04:06:47;13.45;78.92
65291;SHT30;51893;59.754;10.110;2022-07-23T04:09:14;13.46;79.02
65291;SHT30;51893;59.754;10.110;2022-07-23T04:11:42;13.48;79.08
65291;SHT30;51893;59.754;10.110;2022-07-23T04:14:11;13.49;79.08
65291;SHT30;51893;59.754;10.110;2022-07-23T04:16:39;13.50;79.29
65291;SHT30;51893;59.754;10.110;2022-07-23T04:19:07;13.51;79.30
65291;SHT30;51893;59.754;10.110;2022-07-23T04:21:34;13.55;79.34
65291;SHT30;51893;59.754;10.110;2022-07-23T04:24:02;13.58;79.42
65291;SHT30;51893;59.754;10.110;2022-07-23T04:26:32;13.62;79.58
65291;SHT30;51893;59.754;10.110;2022-07-23T04:29:00;13.67;79.51
65291;SHT30;51893;59.754;10.110;2022-07-23T04:31:29;13.75;79.37
65291;SHT30;51893;59.754;10.110;2022-07-23T04:34:03;13.81;79.34
65291;SHT30;51893;59.754;10.110;2022-07-23T04:36:31;13.88;79.27
65291;SHT30;51893;59.754;10.110;2022-07-23T04:38:59;13.92;79.12
65291;SHT30;51893;59.754;10.110;2022-07-23T04:41:27;13.98;79.03
65291;SHT30;51893;59.754;10.110;2022-07-23T04:43:56;14.01;79.02
65291;SHT30;51893;59.754;10.110;2022-07-23T04:46:23;14.04;78.94
65291;SHT30;51893;59.754;10.110;2022-07-23T04:48:52;14.06;78.91
65291;SHT30;51893;59.754;10.110;2022-07-23T04:51:19;14.10;78.81
65291;SHT30;51893;59.754;10.110;2022-07-23T04:53:47;14.17;78.80
65291;SHT30;51893;59.754;10.110;2022-07-23T04:56:15;14.18;78.98
65291;SHT30;51893;59.754;10.110;2022-07-23T04:58:43;14.09;79.09
65291;SHT30;51893;59.754;10.110;2022-07-23T05:01:11;14.08;78.99
65291;SHT30;51893;59.754;10.110;2022-07-23T05:03:39;14.10;78.83
65291;SHT30;51893;59.754;10.110;2022-07-23T05:06:07;14.18;78.77
65291;SHT30;51893;59.754;10.110;2022-07-23T05:08:36;14.30;78.29
65291;SHT30;51893;59.754;10.110;2022-07-23T05:11:03;14.37;77.89
65291;SHT30;51893;59.754;10.110;2022-07-23T05:13:31;14.43;77.78
65291;SHT30;51893;59.754;10.110;2022-07-23T05:15:59;14.51;77.67
65291;SHT30;51893;59.754;10.110;2022-07-23T05:18:27;14.58;77.45
65291;SHT30;51893;59.754;10.110;2022-07-23T05:20:55;14.65;77.45
65291;SHT30;51893;59.754;10.110;2022-07-23T05:23:22;14.73;77.57
65291;SHT30;51893;59.754;10.110;2022-07-23T05:25:50;14.78;77.45
65291;SHT30;51893;59.754;10.110;2022-07-23T05:28:18;14.82;77.39
65291;SHT30;51893;59.754;10.110;2022-07-23T05:30:49;14.88;77.54
65291;SHT30;51893;59.754;10.110;2022-07-23T05:33:20;14.95;77.52
65291;SHT30;51893;59.754;10.110;2022-07-23T05:35:48;14.97;77.31
65291;SHT30;51893;59.754;10.110;2022-07-23T05:38:16;15.02;77.24
65291;SHT30;51893;59.754;10.110;2022-07-23T05:40:43;15.10;77.34
65291;SHT30;51893;59.754;10.110;2022-07-23T05:43:11;15.21;77.14
65291;SHT30;51893;59.754;10.110;2022-07-23T05:45:39;15.26;76.98
65291;SHT30;51893;59.754;10.110;2022-07-23T05:48:07;15.31;76.92
65291;SHT30;51893;59.754;10.110;2022-07-23T05:50:34;15.39;76.93
65291;SHT30;51893;59.754;10.110;2022-07-23T05:53:02;15.46;76.72
65291;SHT30;51893;59.754;10.110;2022-07-23T05:55:30;15.51;76.52
65291;SHT30;51893;59.754;10.110;2022-07-23T05:57:58;15.57;76.35
65291;SHT30;51893;59.754;10.110;2022-07-23T06:00:27;15.65;76.20
65291;SHT30;51893;59.754;10.110;2022-07-23T06:02:56;15.72;76.09
65291;SHT30;51893;59.754;10.110;2022-07-23T06:05:24;15.81;76.02
65291;SHT30;51893;59.754;10.110;2022-07-23T06:07:52;15.89;75.99
65291;SHT30;51893;59.754;10.110;2022-07-23T06:10:21;15.95;75.93
65291;SHT30;51893;59.754;10.110;2022-07-23T06:12:49;16.00;75.67
65291;SHT30;51893;59.754;10.110;2022-07-23T06:15:17;16.05;75.54
65291;SHT30;51893;59.754;10.110;2022-07-23T06:17:45;16.12;75.42
65291;SHT30;51893;59.754;10.110;2022-07-23T06:20:12;16.24;75.60
65291;SHT30;51893;59.754;10.110;2022-07-23T06:22:40;16.32;75.52
65291;SHT30;51893;59.754;10.110;2022-07-23T06:25:08;16.39;75.20
65291;SHT30;51893;59.754;10.110;2022-07-23T06:27:46;16.49;74.79
65291;SHT30;51893;59.754;10.110;2022-07-23T06:30:15;16.52;74.35
65291;SHT30;51893;59.754;10.110;2022-07-23T06:32:45;16.59;74.32
65291;SHT30;51893;59.754;10.110;2022-07-23T06:35:15;16.66;74.26
65291;SHT30;51893;59.754;10.110;2022-07-23T06:37:45;16.71;74.11
65291;SHT30;51893;59.754;10.110;2022-07-23T06:40:14;16.78;74.01
65291;SHT30;51893;59.754;10.110;2022-07-23T06:42:42;16.84;73.93
65291;SHT30;51893;59.754;10.110;2022-07-23T06:45:10;16.91;73.91
65291;SHT30;51893;59.754;10.110;2022-07-23T06:47:38;17.02;73.46
65291;SHT30;51893;59.754;10.110;2022-07-23T06:50:07;17.08;72.98
65291;SHT30;51893;59.754;10.110;2022-07-23T06:52:35;17.16;72.80
65291;SHT30;51893;59.754;10.110;2022-07-23T06:55:09;17.26;72.34
65291;SHT30;51893;59.754;10.110;2022-07-23T06:57:37;17.32;71.67
65291;SHT30;51893;59.754;10.110;2022-07-23T07:00:05;17.42;70.86
65291;SHT30;51893;59.754;10.110;2022-07-23T07:02:34;17.51;70.67
65291;SHT30;51893;59.754;10.110;2022-07-23T07:05:02;17.57;70.35
65291;SHT30;51893;59.754;10.110;2022-07-23T07:07:33;17.62;70.19
65291;SHT30;51893;59.754;10.110;2022-07-23T07:10:02;17.71;70.05
65291;SHT30;51893;59.754;10.110;2022-07-23T07:12:31;17.78;69.66
65291;SHT30;51893;59.754;10.110;2022-07-23T07:14:59;17.86;69.16
65291;SHT30;51893;59.754;10.110;2022-07-23T07:17:27;17.91;69.20
65291;SHT30;51893;59.754;10.110;2022-07-23T07:19:54;17.98;68.92
65291;SHT30;51893;59.754;10.110;2022-07-23T07:22:22;18.08;68.52
65291;SHT30;51893;59.754;10.110;2022-07-23T07:24:50;18.20;68.79
65291;SHT30;51893;59.754;10.110;2022-07-23T07:27:18;18.31;68.50
65291;SHT30;51893;59.754;10.110;2022-07-23T07:29:45;18.45;68.15
65291;SHT30;51893;59.754;10.110;2022-07-23T07:32:13;18.56;67.79
65291;SHT30;51893;59.754;10.110;2022-07-23T07:35:04;18.61;67.17
65291;SHT30;51893;59.754;10.110;2022-07-23T07:37:33;18.66;66.77
65291;SHT30;51893;59.754;10.110;2022-07-23T07:40:02;18.62;66.34
65291;SHT30;51893;59.754;10.110;2022-07-23T07:42:30;18.64;66.25
65291;SHT30;51893;59.754;10.110;2022-07-23T07:44:59;18.76;65.88
65291;SHT30;51893;59.754;10.110;2022-07-23T07:47:27;18.80;65.45
65291;SHT30;51893;59.754;10.110;2022-07-23T07:49:55;18.83;64.96
65291;SHT30;51893;59.754;10.110;2022-07-23T07:52:23;18.87;64.86
65291;SHT30;51893;59.754;10.110;2022-07-23T07:54:51;18.96;64.08
65291;SHT30;51893;59.754;10.110;2022-07-23T07:57:19;19.00;63.69
65291;SHT30;51893;59.754;10.110;2022-07-23T07:59:47;18.97;63.30
65291;SHT30;51893;59.754;10.110;2022-07-23T08:02:21;18.97;63.21
65291;SHT30;51893;59.754;10.110;2022-07-23T08:04:49;19.02;62.87
65291;SHT30;51893;59.754;10.110;2022-07-23T08:07:16;19.13;63.66
65291;SHT30;51893;59.754;10.110;2022-07-23T08:09:44;19.33;63.80
65291;SHT30;51893;59.754;10.110;2022-07-23T08:12:12;19.47;63.30
65291;SHT30;51893;59.754;10.110;2022-07-23T08:14:40;19.52;62.58
65291;SHT30;51893;59.754;10.110;2022-07-23T08:17:08;19.61;63.04
65291;SHT30;51893;59.754;10.110;2022-07-23T08:19:41;19.75;63.05
65291;SHT30;51893;59.754;10.110;2022-07-23T08:22:09;19.85;62.01
65291;SHT30;51893;59.754;10.110;2022-07-23T08:24:37;19.93;61.92
65291;SHT30;51893;59.754;10.110;2022-07-23T08:27:05;19.97;61.35
65291;SHT30;51893;59.754;10.110;2022-07-23T08:29:33;20.02;61.48
65291;SHT30;51893;59.754;10.110;2022-07-23T08:32:00;20.16;61.59
65291;SHT30;51893;59.754;10.110;2022-07-23T08:34:48;20.24;60.98
65291;SHT30;51893;59.754;10.110;2022-07-23T08:37:16;20.28;60.56
65291;SHT30;51893;59.754;10.110;2022-07-23T08:39:43;20.36;60.56
65291;SHT30;51893;59.754;10.110;2022-07-23T08:42:13;20.38;59.95
65291;SHT30;51893;59.754;10.110;2022-07-23T08:44:42;20.49;59.69
65291;SHT30;51893;59.754;10.110;2022-07-23T08:47:14;20.57;60.05
65291;SHT30;51893;59.754;10.110;2022-07-23T08:49:45;20.56;59.69
65291;SHT30;51893;59.754;10.110;2022-07-23T08:52:14;20.63;59.92
65291;SHT30;51893;59.754;10.110;2022-07-23T08:54:42;20.67;59.63
65291;SHT30;51893;59.754;10.110;2022-07-23T08:57:11;20.71;59.96
65291;SHT30;51893;59.754;10.110;2022-07-23T08:59:39;20.77;59.77
65291;SHT30;51893;59.754;10.110;2022-07-23T09:02:08;20.74;59.32
65291;SHT30;51893;59.754;10.110;2022-07-23T09:04:36;20.73;59.29
65291;SHT30;51893;59.754;10.110;2022-07-23T09:07:04;20.80;59.19
65291;SHT30;51893;59.754;10.110;2022-07-23T09:09:32;20.81;59.10
65291;SHT30;51893;59.754;10.110;2022-07-23T09:12:02;20.81;59.10
65291;SHT30;51893;59.754;10.110;2022-07-23T09:17:15;20.68;58.65
65291;SHT30;51893;59.754;10.110;2022-07-23T09:19:45;20.76;58.64
65291;SHT30;51893;59.754;10.110;2022-07-23T09:25:05;21.01;58.60
65291;SHT30;51893;59.754;10.110;2022-07-23T09:27:55;21.13;58.69
65291;SHT30;51893;59.754;10.110;2022-07-23T09:30:26;21.20;57.89
65291;SHT30;51893;59.754;10.110;2022-07-23T09:38:19;21.21;57.49
65291;SHT30;51893;59.754;10.110;2022-07-23T09:41:09;21.20;57.28
65291;SHT30;51893;59.754;10.110;2022-07-23T09:43:39;21.15;56.86
65291;SHT30;51893;59.754;10.110;2022-07-23T09:46:20;21.05;56.75
65291;SHT30;51893;59.754;10.110;2022-07-23T09:48:53;21.09;56.74
65291;SHT30;51893;59.754;10.110;2022-07-23T09:51:26;21.17;56.99
65291;SHT30;51893;59.754;10.110;2022-07-23T09:54:04;21.30;56.73
65291;SHT30;51893;59.754;10.110;2022-07-23T09:56:32;21.40;56.70
65291;SHT30;51893;59.754;10.110;2022-07-23T09:59:04;21.47;56.57
65291;SHT30;51893;59.754;10.110;2022-07-23T10:01:34;21.47;56.14
65291;SHT30;51893;59.754;10.110;2022-07-23T10:04:03;21.44;55.83
65291;SHT30;51893;59.754;10.110;2022-07-23T10:06:32;21.43;55.95
65291;SHT30;51893;59.754;10.110;2022-07-23T10:09:02;21.41;55.70
65291;SHT30;51893;59.754;10.110;2022-07-23T10:11:30;21.39;55.44
65291;SHT30;51893;59.754;10.110;2022-07-23T10:14:01;21.44;55.70
65291;SHT30;51893;59.754;10.110;2022-07-23T10:16:32;21.48;55.25
65291;SHT30;51893;59.754;10.110;2022-07-23T10:19:01;21.50;55.56
65291;SHT30;51893;59.754;10.110;2022-07-23T10:21:34;21.52;55.14
65291;SHT30;51893;59.754;10.110;2022-07-23T10:24:16;21.47;55.01
65291;SHT30;51893;59.754;10.110;2022-07-23T10:30:01;21.57;54.74
65291;SHT30;51893;59.754;10.110;2022-07-23T10:32:43;21.59;54.93
65291;SHT30;51893;59.754;10.110;2022-07-23T10:38:33;21.72;55.18
65291;SHT30;51893;59.754;10.110;2022-07-23T10:41:15;21.79;54.87
65291;SHT30;51893;59.754;10.110;2022-07-23T10:44:11;21.95;54.66
65291;SHT30;51893;59.754;10.110;2022-07-23T10:46:54;22.05;54.12
65291;SHT30;51893;59.754;10.110;2022-07-23T10:49:30;22.20;54.37
65291;SHT30;51893;59.754;10.110;2022-07-23T10:54:52;22.41;53.31
65291;SHT30;51893;59.754;10.110;2022-07-23T10:57:49;22.54;53.26
65291;SHT30;51893;59.754;10.110;2022-07-23T11:00:25;22.65;53.26
65291;SHT30;51893;59.754;10.110;2022-07-23T11:02:57;22.73;52.94
65291;SHT30;51893;59.754;10.110;2022-07-23T11:05:44;22.69;52.57
65291;SHT30;51893;59.754;10.110;2022-07-23T11:13:31;22.55;52.88
65291;SHT30;51893;59.754;10.110;2022-07-23T11:32:27;22.30;52.90
65291;SHT30;51893;59.754;10.110;2022-07-23T11:34:58;22.31;52.79
65291;SHT30;51893;59.754;10.110;2022-07-23T11:40:05;22.28;52.83
65291;SHT30;51893;59.754;10.110;2022-07-23T11:42:54;22.28;52.88
65291;SHT30;51893;59.754;10.110;2022-07-23T11:45:36;22.26;53.10
65291;SHT30;51893;59.754;10.110;2022-07-23T11:50:53;22.25;53.14
65291;SHT30;51893;59.754;10.110;2022-07-23T11:53:33;22.27;53.49
65291;SHT30;51893;59.754;10.110;2022-07-23T11:56:09;22.28;53.60
65291;SHT30;51893;59.754;10.110;2022-07-23T11:58:39;22.17;53.48
65291;SHT30;51893;59.754;10.110;2022-07-23T12:01:22;22.04;53.45
65291;SHT30;51893;59.754;10.110;2022-07-23T12:03:53;22.07;54.01
65291;SHT30;51893;59.754;10.110;2022-07-23T12:06:21;22.05;53.76
65291;SHT30;51893;59.754;10.110;2022-07-23T12:08:48;21.97;54.09
65291;SHT30;51893;59.754;10.110;2022-07-23T12:11:16;22.00;54.39
65291;SHT30;51893;59.754;10.110;2022-07-23T12:13:54;21.92;54.56
65291;SHT30;51893;59.754;10.110;2022-07-23T12:16:25;21.88;54.64
65291;SHT30;51893;59.754;10.110;2022-07-23T12:18:53;21.84;55.00
65291;SHT30;51893;59.754;10.110;2022-07-23T12:21:21;21.78;55.16
65291;SHT30;51893;59.754;10.110;2022-07-23T12:23:49;21.70;55.19
65291;SHT30;51893;59.754;10.110;2022-07-23T12:26:17;21.61;55.26
65291;SHT30;51893;59.754;10.110;2022-07-23T12:28:51;21.55;55.32
65291;SHT30;51893;59.754;10.110;2022-07-23T12:31:25;21.58;55.60
65291;SHT30;51893;59.754;10.110;2022-07-23T12:33:55;21.64;55.78
65291;SHT30;51893;59.754;10.110;2022-07-23T12:36:38;21.66;55.36
65291;SHT30;51893;59.754;10.110;2022-07-23T12:39:07;21.75;55.95
65291;SHT30;51893;59.754;10.110;2022-07-23T12:41:50;21.80;55.67
65291;SHT30;51893;59.754;10.110;2022-07-23T12:44:19;21.79;55.47
65291;SHT30;51893;59.754;10.110;2022-07-23T12:46:51;21.78;55.43
65291;SHT30;51893;59.754;10.110;2022-07-23T12:49:26;21.79;55.44
65291;SHT30;51893;59.754;10.110;2022-07-23T12:51:56;21.84;55.54
65291;SHT30;51893;59.754;10.110;2022-07-23T12:54:28;21.91;55.44
65291;SHT30;51893;59.754;10.110;2022-07-23T12:56:57;21.95;55.47
65291;SHT30;51893;59.754;10.110;2022-07-23T12:59:30;21.98;55.63
65291;SHT30;51893;59.754;10.110;2022-07-23T13:01:59;21.97;55.56
65291;SHT30;51893;59.754;10.110;2022-07-23T13:04:29;21.96;55.66
65291;SHT30;51893;59.754;10.110;2022-07-23T13:06:59;21.97;55.76
65291;SHT30;51893;59.754;10.110;2022-07-23T13:09:32;21.98;55.92
65291;SHT30;51893;59.754;10.110;2022-07-23T13:12:08;22.03;55.78
65291;SHT30;51893;59.754;10.110;2022-07-23T13:14:38;22.04;55.85
65291;SHT30;51893;59.754;10.110;2022-07-23T13:17:08;22.10;55.83
65291;SHT30;51893;59.754;10.110;2022-07-23T13:19:36;22.14;55.35
65291;SHT30;51893;59.754;10.110;2022-07-23T13:22:04;22.07;55.19
65291;SHT30;51893;59.754;10.110;2022-07-23T13:24:36;22.09;55.61
65291;SHT30;51893;59.754;10.110;2022-07-23T13:27:06;22.10;55.79
65291;SHT30;51893;59.754;10.110;2022-07-23T13:29:39;22.07;55.63
65291;SHT30;51893;59.754;10.110;2022-07-23T13:32:08;22.07;55.58
65291;SHT30;51893;59.754;10.110;2022-07-23T13:34:39;22.07;55.54
65291;SHT30;51893;59.754;10.110;2022-07-23T13:37:08;22.08;55.61
65291;SHT30;51893;59.754;10.110;2022-07-23T13:39:36;22.07;55.69
65291;SHT30;51893;59.754;10.110;2022-07-23T13:42:05;22.08;56.01
65291;SHT30;51893;59.754;10.110;2022-07-23T13:44:34;22.08;56.16
65291;SHT30;51893;59.754;10.110;2022-07-23T13:47:03;22.12;56.34
65291;SHT30;51893;59.754;10.110;2022-07-23T13:49:31;22.18;56.29
65291;SHT30;51893;59.754;10.110;2022-07-23T13:52:02;22.26;56.16
65291;SHT30;51893;59.754;10.110;2022-07-23T13:54:34;22.27;55.65
65291;SHT30;51893;59.754;10.110;2022-07-23T13:57:03;22.20;55.31
65291;SHT30;51893;59.754;10.110;2022-07-23T13:59:32;22.15;55.68
65291;SHT30;51893;59.754;10.110;2022-07-23T14:01:59;22.17;55.62
65291;SHT30;51893;59.754;10.110;2022-07-23T14:04:49;22.16;55.42
65291;SHT30;51893;59.754;10.110;2022-07-23T14:07:17;22.21;55.77
65291;SHT30;51893;59.754;10.110;2022-07-23T14:09:46;22.34;55.88
65291;SHT30;51893;59.754;10.110;2022-07-23T14:12:15;22.44;55.44
65291;SHT30;51893;59.754;10.110;2022-07-23T14:14:44;22.50;55.10
65291;SHT30;51893;59.754;10.110;2022-07-23T14:17:12;22.60;54.83
65291;SHT30;51893;59.754;10.110;2022-07-23T14:19:41;22.65;54.44
65291;SHT30;51893;59.754;10.110;2022-07-23T14:22:10;22.64;54.13
65291;SHT30;51893;59.754;10.110;2022-07-23T14:24:39;22.70;54.28
65291;SHT30;51893;59.754;10.110;2022-07-23T14:27:07;22.76;54.38
65291;SHT30;51893;59.754;10.110;2022-07-23T14:29:35;22.91;54.57
65291;SHT30;51893;59.754;10.110;2022-07-23T14:32:04;23.09;54.50
65291;SHT30;51893;59.754;10.110;2022-07-23T14:34:33;23.14;54.10
65291;SHT30;51893;59.754;10.110;2022-07-23T14:37:05;23.10;53.98
65291;SHT30;51893;59.754;10.110;2022-07-23T14:39:33;23.07;54.19
65291;SHT30;51893;59.754;10.110;2022-07-23T14:42:01;22.97;54.05
65291;SHT30;51893;59.754;10.110;2022-07-23T14:44:30;22.98;54.44
65291;SHT30;51893;59.754;10.110;2022-07-23T14:46:58;22.98;54.39
65291;SHT30;51893;59.754;10.110;2022-07-23T14:49:27;22.97;54.25
65291;SHT30;51893;59.754;10.110;2022-07-23T14:51:55;22.94;54.81
65291;SHT30;51893;59.754;10.110;2022-07-23T14:54:23;22.84;55.12
65291;SHT30;51893;59.754;10.110;2022-07-23T14:56:54;22.72;55.48
65291;SHT30;51893;59.754;10.110;2022-07-23T14:59:23;22.60;55.57
65291;SHT30;51893;59.754;10.110;2022-07-23T15:01:52;22.56;56.06
65291;SHT30;51893;59.754;10.110;2022-07-23T15:04:21;22.53;55.90
65291;SHT30;51893;59.754;10.110;2022-07-23T15:07:05;22.51;56.05
65291;SHT30;51893;59.754;10.110;2022-07-23T15:09:33;22.56;56.23
65291;SHT30;51893;59.754;10.110;2022-07-23T15:12:03;22.63;56.03
65291;SHT30;51893;59.754;10.110;2022-07-23T15:14:36;22.68;55.94
65291;SHT30;51893;59.754;10.110;2022-07-23T15:17:05;22.76;56.08
65291;SHT30;51893;59.754;10.110;2022-07-23T15:19:33;22.82;55.97
65291;SHT30;51893;59.754;10.110;2022-07-23T15:22:00;22.88;55.57
65291;SHT30;51893;59.754;10.110;2022-07-23T15:24:29;22.93;55.47
65291;SHT30;51893;59.754;10.110;2022-07-23T15:26:58;23.02;55.59
65291;SHT30;51893;59.754;10.110;2022-07-23T15:29:27;23.08;55.70
65291;SHT30;51893;59.754;10.110;2022-07-23T15:31:55;23.12;55.60
65291;SHT30;51893;59.754;10.110;2022-07-23T15:34:25;23.17;55.46
65291;SHT30;51893;59.754;10.110;2022-07-23T15:36:54;23.23;55.53
65291;SHT30;51893;59.754;10.110;2022-07-23T15:39:22;23.33;55.75
65291;SHT30;51893;59.754;10.110;2022-07-23T15:41:51;23.33;55.58
65291;SHT30;51893;59.754;10.110;2022-07-23T15:44:19;23.25;55.53
65291;SHT30;51893;59.754;10.110;2022-07-23T15:46:56;23.22;56.01
65291;SHT30;51893;59.754;10.110;2022-07-23T15:49:25;23.20;56.15
65291;SHT30;51893;59.754;10.110;2022-07-23T15:51:55;23.23;56.17
65291;SHT30;51893;59.754;10.110;2022-07-23T15:54:24;23.27;55.71
65291;SHT30;51893;59.754;10.110;2022-07-23T15:56:53;23.31;55.41
65291;SHT30;51893;59.754;10.110;2022-07-23T15:59:22;23.44;55.30
65291;SHT30;51893;59.754;10.110;2022-07-23T16:01:56;23.65;54.83
65291;SHT30;51893;59.754;10.110;2022-07-23T16:04:25;23.85;54.32
65291;SHT30;51893;59.754;10.110;2022-07-23T16:06:53;24.05;53.77
65291;SHT30;51893;59.754;10.110;2022-07-23T16:09:21;24.21;53.76
65291;SHT30;51893;59.754;10.110;2022-07-23T16:11:49;24.26;53.24
65291;SHT30;51893;59.754;10.110;2022-07-23T16:14:17;24.28;53.54
65291;SHT30;51893;59.754;10.110;2022-07-23T16:16:45;24.39;53.32
65291;SHT30;51893;59.754;10.110;2022-07-23T16:19:13;24.48;53.12